Perseverance — WDC7281 — position and weather

sailwx.info

Track history (hours):
 
Tides and Currents Weather Stations Pressure Air Temp Water Temp Dewpoint Dewpoint Depression Visibility Wind Speed Wind Dir Waves Ship Positions

Perseverance

Owner: Berman, Jeffrey R, Oakland, CA. More information available from US FCC via Universal Licensing System and Coast Guard Vessel Documentation Center.

Last reported at 2018-Feb-18 21:19 UTC. Time now 2018-Feb-24 12:08 UTC.
Position N 37°47' W 122°16'.

Length 12 m.

Type: Sailing vessel. MMSI: 367069020.

Date/timePositionNaut miles runAvg speedWind from/ knotsBaromVisibWave heightAir tempDewpointWater temp
2018-Feb-18 21:19N 37°47' W 122°16'0 0.0
2018-Feb-18 20:51N 37°47' W 122°16'1 3.2
2018-Feb-18 20:29N 37°48' W 122°17'2 4.8
2018-Feb-18 19:59N 37°48' W 122°20'2 5.1
2018-Feb-18 19:30N 37°50' W 122°22'3 5.4
2018-Feb-18 19:00N 37°52' W 122°24'2 4.7
2018-Feb-18 18:30N 37°54' W 122°26'1 1.5
2018-Feb-18 17:59N 37°54' W 122°27'0 0.0
2018-Feb-18 17:29N 37°54' W 122°27'0 0.0
2018-Feb-18 16:59N 37°54' W 122°27'0 0.0
2018-Feb-18 16:29N 37°54' W 122°27'0 0.0
2018-Feb-18 15:59N 37°54' W 122°27'0 0.0
2018-Feb-18 15:29N 37°54' W 122°27'0 0.0
2018-Feb-18 14:59N 37°54' W 122°27'0 0.0
2018-Feb-18 14:29N 37°54' W 122°27'0 0.0
2018-Feb-18 13:56N 37°54' W 122°27'0 0.0
2018-Feb-18 13:29N 37°54' W 122°27'0 0.0
2018-Feb-18 12:56N 37°54' W 122°27'0 0.0
2018-Feb-18 12:23N 37°54' W 122°27'0 0.0
2018-Feb-18 11:59N 37°54' W 122°27'0 0.0
2018-Feb-18 11:29N 37°54' W 122°27'0 0.0
2018-Feb-18 10:59N 37°54' W 122°27'0 0.0
2018-Feb-18 10:29N 37°54' W 122°27'0 0.0
2018-Feb-18 09:56N 37°54' W 122°27'0 0.0
2018-Feb-18 09:29N 37°54' W 122°27'0 0.0
2018-Feb-18 08:59N 37°54' W 122°27'0 0.0
2018-Feb-18 08:29N 37°54' W 122°27'0 0.0
2018-Feb-18 07:59N 37°54' W 122°27'0 0.0
2018-Feb-18 07:29N 37°54' W 122°27'0 0.0
2018-Feb-18 06:59N 37°54' W 122°27'0 0.0
2018-Feb-18 06:29N 37°54' W 122°27'0 0.1
2018-Feb-18 05:59N 37°54' W 122°27'0 0.0
2018-Feb-18 05:29N 37°54' W 122°27'0 0.0
2018-Feb-18 04:56N 37°54' W 122°27'0 0.1
2018-Feb-18 04:29N 37°54' W 122°27'0 0.0
2018-Feb-18 03:59N 37°54' W 122°27'0 0.0
2018-Feb-18 03:29N 37°54' W 122°27'0 0.0
2018-Feb-18 02:59N 37°54' W 122°27'0 0.0
2018-Feb-18 02:29N 37°54' W 122°27'0 0.0
2018-Feb-18 01:59N 37°54' W 122°27'0 0.0
2018-Feb-18 01:23N 37°54' W 122°27'0 0.0
2018-Feb-18 00:59N 37°54' W 122°27'0 0.0
2018-Feb-18 00:29N 37°54' W 122°27'1 1.2
2018-Feb-18 00:00N 37°54' W 122°27'2 3.2
2018-Feb-17 23:30N 37°52' W 122°27'1 2.9
2018-Feb-17 23:00N 37°51' W 122°26'4 7.0
2018-Feb-17 22:30N 37°48' W 122°23'3 5.7
2018-Feb-17 22:00N 37°48' W 122°19'3 5.0
2018-Feb-17 21:30N 37°47' W 122°16'  
2018-Feb-13 00:23N 37°47' W 122°16'0 0.0
2018-Feb-12 23:59N 37°47' W 122°16'0 0.0
2018-Feb-12 23:29N 37°47' W 122°16'0 0.0
2018-Feb-12 22:59N 37°47' W 122°16'0 0.0
2018-Feb-12 22:29N 37°47' W 122°16'0 0.0
2018-Feb-12 21:56N 37°47' W 122°16'0 0.0
2018-Feb-12 21:29N 37°47' W 122°16'0 0.0
2018-Feb-12 20:59N 37°47' W 122°16'1 1.5
2018-Feb-12 20:30N 37°48' W 122°17'1 2.4
2018-Feb-12 19:59N 37°48' W 122°18'1 2.6
2018-Feb-12 19:30N 37°48' W 122°17'  
Track history (hours):
 
Tides and Currents Weather Stations Pressure Air Temp Water Temp Dewpoint Dewpoint Depression Visibility Wind Speed Wind Dir Waves Ship Positions

Perseverance

Owner: Berman, Jeffrey R, Oakland, CA. More information available from US FCC via Universal Licensing System and Coast Guard Vessel Documentation Center.

Last reported at 2018-Feb-18 21:19 UTC. Time now 2018-Feb-24 12:08 UTC.
Position N 37°47' W 122°16'.

Length 12 m.

Type: Sailing vessel. MMSI: 367069020.

Date/timePositionNaut miles runAvg speedWind from/ knotsBaromVisibWave heightAir tempDewpointWater temp
2018-Feb-18 21:19N 37°47' W 122°16'0 0.0
2018-Feb-18 20:51N 37°47' W 122°16'1 3.2
2018-Feb-18 20:29N 37°48' W 122°17'2 4.8
2018-Feb-18 19:59N 37°48' W 122°20'2 5.1
2018-Feb-18 19:30N 37°50' W 122°22'3 5.4
2018-Feb-18 19:00N 37°52' W 122°24'2 4.7
2018-Feb-18 18:30N 37°54' W 122°26'1 1.5
2018-Feb-18 17:59N 37°54' W 122°27'0 0.0
2018-Feb-18 17:29N 37°54' W 122°27'0 0.0
2018-Feb-18 16:59N 37°54' W 122°27'0 0.0
2018-Feb-18 16:29N 37°54' W 122°27'0 0.0
2018-Feb-18 15:59N 37°54' W 122°27'0 0.0
2018-Feb-18 15:29N 37°54' W 122°27'0 0.0
2018-Feb-18 14:59N 37°54' W 122°27'0 0.0
2018-Feb-18 14:29N 37°54' W 122°27'0 0.0
2018-Feb-18 13:56N 37°54' W 122°27'0 0.0
2018-Feb-18 13:29N 37°54' W 122°27'0 0.0
2018-Feb-18 12:56N 37°54' W 122°27'0 0.0
2018-Feb-18 12:23N 37°54' W 122°27'0 0.0
2018-Feb-18 11:59N 37°54' W 122°27'0 0.0
2018-Feb-18 11:29N 37°54' W 122°27'0 0.0
2018-Feb-18 10:59N 37°54' W 122°27'0 0.0
2018-Feb-18 10:29N 37°54' W 122°27'0 0.0
2018-Feb-18 09:56N 37°54' W 122°27'0 0.0
2018-Feb-18 09:29N 37°54' W 122°27'0 0.0
2018-Feb-18 08:59N 37°54' W 122°27'0 0.0
2018-Feb-18 08:29N 37°54' W 122°27'0 0.0
2018-Feb-18 07:59N 37°54' W 122°27'0 0.0
2018-Feb-18 07:29N 37°54' W 122°27'0 0.0
2018-Feb-18 06:59N 37°54' W 122°27'0 0.0
2018-Feb-18 06:29N 37°54' W 122°27'0 0.1
2018-Feb-18 05:59N 37°54' W 122°27'0 0.0
2018-Feb-18 05:29N 37°54' W 122°27'0 0.0
2018-Feb-18 04:56N 37°54' W 122°27'0 0.1
2018-Feb-18 04:29N 37°54' W 122°27'0 0.0
2018-Feb-18 03:59N 37°54' W 122°27'0 0.0
2018-Feb-18 03:29N 37°54' W 122°27'0 0.0
2018-Feb-18 02:59N 37°54' W 122°27'0 0.0
2018-Feb-18 02:29N 37°54' W 122°27'0 0.0
2018-Feb-18 01:59N 37°54' W 122°27'0 0.0
2018-Feb-18 01:23N 37°54' W 122°27'0 0.0
2018-Feb-18 00:59N 37°54' W 122°27'0 0.0
2018-Feb-18 00:29N 37°54' W 122°27'1 1.2
2018-Feb-18 00:00N 37°54' W 122°27'2 3.2
2018-Feb-17 23:30N 37°52' W 122°27'1 2.9
2018-Feb-17 23:00N 37°51' W 122°26'4 7.0
2018-Feb-17 22:30N 37°48' W 122°23'3 5.7
2018-Feb-17 22:00N 37°48' W 122°19'3 5.0
2018-Feb-17 21:30N 37°47' W 122°16'  
2018-Feb-13 00:23N 37°47' W 122°16'0 0.0
2018-Feb-12 23:59N 37°47' W 122°16'0 0.0
2018-Feb-12 23:29N 37°47' W 122°16'0 0.0
2018-Feb-12 22:59N 37°47' W 122°16'0 0.0
2018-Feb-12 22:29N 37°47' W 122°16'0 0.0
2018-Feb-12 21:56N 37°47' W 122°16'0 0.0
2018-Feb-12 21:29N 37°47' W 122°16'0 0.0
2018-Feb-12 20:59N 37°47' W 122°16'1 1.5
2018-Feb-12 20:30N 37°48' W 122°17'1 2.4
2018-Feb-12 19:59N 37°48' W 122°18'1 2.6
2018-Feb-12 19:30N 37°48' W 122°17'  

Dump ship's entire track history